ZGGG METAR and TAF | Updated Today

ZGGG METAR

Guangzhou Baiyun International Airport

Observation time: 29 min. ago

ZGGG 291100Z 12003MPS 9999 BKN046 30/26 Q1003 NOSIG

Need help? Read our tutorial on how to read METARs or read the parsed version below.

Guangzhou Baiyun International Airport (ZGGG) METAR

  • Weather conditions on Sun, 29 May 2022 11:00:00 +0000 (29 min. ago):
  • Present conditions: Dry
  • Clouds: Broken sky at 1402 meters
  • Visibility: Greater than 10 km
  • Wind: 120 degrees at 3 knots
  • Temperature: 30 celsius
  • Dew point: 26 celsius
  • Pressure: 1003 millibars
  • Remarks: None


Useful to know...

ZGGG TAF

Guangzhou Baiyun International Airport

TAF ZGGG 290303Z 2906/3006 16004MPS 6000 SCT040 TX33/2907Z TN26/2922Z TEMPO 2906/2912 TSRA SCT011 SCT030CB BKN033
Observation time: 8:26 hr. ago
Need help? Read our tutorial on how to read TAFs or read the parsed version below.

Parsed version of TAF for Guangzhou Baiyun International Airport (ZGGG)

  • From 29 May at 06:00 UTC, to day 30 of the month at 06:00 UTC
  • Clouds: Scattered at 1219 meters
  • Visibility: 6000 meters
  • Wind: 160 degrees at 4
  • Expected to arise temporarily, from 29 May at 06:00 UTC, to day 29 of the month at 12:00 UTC
  • Clouds: Scattered at 335 meters; scattered at 914 meters, cumulonimbus; broken sky at 1006 meters

Airports near ZGGG

No airports found within 100nm radius.